createdAt,value
2023-01-11T00:01:11.832Z,30.80
2023-01-11T00:03:40.159Z,32.20
2023-01-11T00:06:09.502Z,25.50
2023-01-11T00:11:12.987Z,24.20
2023-01-11T00:13:41.774Z,22.50
2023-01-11T00:16:10.108Z,28.00
2023-01-11T00:18:39.142Z,29.90
2023-01-11T00:21:08.662Z,34.90
2023-01-11T00:26:07.404Z,21.40
2023-01-11T00:28:35.489Z,25.90
2023-01-11T00:31:04.370Z,27.20
2023-01-11T00:33:32.519Z,32.50
2023-01-11T00:36:01.155Z,25.20
2023-01-11T00:38:44.187Z,23.10
2023-01-11T00:41:34.802Z,33.10
2023-01-11T00:44:23.526Z,35.10
2023-01-11T00:47:10.389Z,35.50
2023-01-11T00:49:39.255Z,22.30
2023-01-11T00:52:09.487Z,17.90
2023-01-11T00:54:41.999Z,19.40
2023-01-11T00:57:10.430Z,20.70
2023-01-11T00:59:41.491Z,18.40
2023-01-11T01:02:11.639Z,18.40
2023-01-11T01:04:40.502Z,17.80
2023-01-11T01:07:08.899Z,17.20
2023-01-11T01:09:37.307Z,20.40
2023-01-11T01:12:07.266Z,19.90
2023-01-11T01:14:36.103Z,20.20
2023-01-11T01:17:09.054Z,18.30
2023-01-11T01:19:38.920Z,18.50
2023-01-11T01:22:08.291Z,18.10
2023-01-11T01:24:36.791Z,16.10
2023-01-11T01:27:04.959Z,18.90
2023-01-11T01:29:33.034Z,20.70
2023-01-11T01:32:01.205Z,18.20
2023-01-11T01:34:29.292Z,17.50
2023-01-11T01:36:57.590Z,17.80
2023-01-11T01:39:25.724Z,18.60
2023-01-11T01:41:53.979Z,18.70
2023-01-11T01:44:56.904Z,18.10
2023-01-11T01:47:40.021Z,19.00
2023-01-11T01:50:23.248Z,19.60
2023-01-11T01:52:55.137Z,20.90
2023-01-11T01:55:30.673Z,19.00
2023-01-11T01:57:59.850Z,20.10
2023-01-11T02:02:58.953Z,20.00
2023-01-11T02:05:28.366Z,19.40
2023-01-11T02:07:59.828Z,18.80
2023-01-11T02:10:29.217Z,17.70
2023-01-11T02:15:37.931Z,20.00
2023-01-11T02:18:12.000Z,20.00
2023-01-11T02:20:53.324Z,19.10
2023-01-11T02:23:27.405Z,17.60
2023-01-11T02:26:10.663Z,17.20
2023-01-11T02:29:00.732Z,19.10
2023-01-11T02:31:39.097Z,18.50
2023-01-11T02:34:30.494Z,22.50
2023-01-11T02:37:19.778Z,16.70
2023-01-11T02:40:18.372Z,19.80
2023-01-11T02:43:11.020Z,22.90
2023-01-11T02:45:50.440Z,20.60
2023-01-11T02:49:14.032Z,19.40
2023-01-11T02:51:55.772Z,17.00
2023-01-11T02:54:25.075Z,17.90
2023-01-11T02:59:31.254Z,17.00
2023-01-11T03:01:59.817Z,18.00
2023-01-11T03:04:36.995Z,20.10
2023-01-11T03:07:20.043Z,18.50
2023-01-11T03:10:13.124Z,19.80
2023-01-11T03:12:54.948Z,19.60
2023-01-11T03:15:26.189Z,19.30
2023-01-11T03:18:30.989Z,18.00
2023-01-11T03:21:22.617Z,19.00
2023-01-11T03:24:36.924Z,17.50
2023-01-11T03:27:20.578Z,20.10
2023-01-11T03:29:58.720Z,21.30
2023-01-11T03:32:36.989Z,21.60
2023-01-11T03:35:37.944Z,21.80
2023-01-11T03:38:13.100Z,22.10
2023-01-11T03:40:46.696Z,21.90
2023-01-11T03:43:18.514Z,22.70
2023-01-11T03:46:06.111Z,21.80
2023-01-11T03:48:57.714Z,22.50
2023-01-11T03:51:29.440Z,24.60
2023-01-11T03:54:03.780Z,23.40
2023-01-11T03:57:02.858Z,24.40
2023-01-11T03:59:31.852Z,25.00
2023-01-11T04:02:00.938Z,23.30
2023-01-11T04:04:29.301Z,22.30
2023-01-11T04:06:57.840Z,22.60
2023-01-11T04:09:25.869Z,21.80
2023-01-11T04:11:53.909Z,28.90
2023-01-11T04:14:22.083Z,26.70
2023-01-11T04:16:50.276Z,28.40
2023-01-11T04:19:18.347Z,23.50
2023-01-11T04:21:46.601Z,24.60
2023-01-11T04:24:14.708Z,23.90
2023-01-11T04:26:42.884Z,23.10
2023-01-11T04:29:11.274Z,23.80
2023-01-11T04:31:39.507Z,23.50
2023-01-11T04:34:07.641Z,22.90
2023-01-11T04:36:36.073Z,22.30
2023-01-11T04:39:05.103Z,20.90
2023-01-11T04:41:51.890Z,21.80
2023-01-11T04:44:20.463Z,23.20
2023-01-11T04:46:48.895Z,24.70
2023-01-11T04:49:17.025Z,26.30
2023-01-11T04:51:45.401Z,24.40
2023-01-11T04:54:13.476Z,24.50
2023-01-11T04:56:41.627Z,26.60
2023-01-11T04:59:09.977Z,30.50
2023-01-11T05:01:38.398Z,28.00
2023-01-11T05:04:06.535Z,30.20
2023-01-11T05:06:35.161Z,27.90
2023-01-11T05:09:03.511Z,27.20
2023-01-11T05:11:33.792Z,25.30
2023-01-11T05:14:01.996Z,24.90
2023-01-11T05:16:30.133Z,24.90
2023-01-11T05:19:00.406Z,27.70
2023-01-11T05:21:34.463Z,28.60
2023-01-11T05:24:04.963Z,26.50
2023-01-11T05:26:36.154Z,28.70
2023-01-11T05:29:10.857Z,29.20
2023-01-11T05:31:41.085Z,27.90
2023-01-11T05:34:13.128Z,29.60
2023-01-11T05:36:42.608Z,29.10
2023-01-11T05:39:14.840Z,26.70
2023-01-11T05:41:42.969Z,27.00
2023-01-11T05:44:31.194Z,35.80
2023-01-11T05:46:59.700Z,39.00
2023-01-11T05:49:27.741Z,34.40
2023-01-11T05:51:55.929Z,44.30
2023-01-11T05:54:24.040Z,151.70
2023-01-11T05:56:52.144Z,53.40
2023-01-11T05:59:20.566Z,43.10
2023-01-11T06:01:48.683Z,53.30
2023-01-11T06:04:16.844Z,46.60
2023-01-11T06:06:45.166Z,56.00
2023-01-11T06:09:13.513Z,41.50
2023-01-11T06:11:41.651Z,37.70
2023-01-11T06:14:09.767Z,34.00
2023-01-11T06:16:37.734Z,112.50
2023-01-11T06:19:06.009Z,32.90
2023-01-11T06:21:35.839Z,34.20
2023-01-11T06:24:03.980Z,31.50
2023-01-11T06:26:32.505Z,37.40
2023-01-11T06:29:00.708Z,48.20
2023-01-11T06:31:29.027Z,38.80
2023-01-11T06:33:57.212Z,40.20
2023-01-11T06:36:25.376Z,39.00
2023-01-11T06:38:53.682Z,47.30
2023-01-11T06:41:22.023Z,37.10
2023-01-11T06:43:50.710Z,39.40
2023-01-11T06:46:19.523Z,39.50
2023-01-11T06:48:48.491Z,45.90
2023-01-11T06:51:16.981Z,58.80
2023-01-11T06:53:46.506Z,91.00
2023-01-11T06:56:19.112Z,53.50
2023-01-11T06:58:47.696Z,45.40
2023-01-11T07:01:18.311Z,48.90
2023-01-11T07:03:47.053Z,57.50
2023-01-11T07:06:15.315Z,43.00
2023-01-11T07:08:43.403Z,66.10
2023-01-11T07:11:11.789Z,57.40
2023-01-11T07:13:40.252Z,109.20
2023-01-11T07:16:08.650Z,114.90
2023-01-11T07:18:37.521Z,95.00
2023-01-11T07:21:06.003Z,40.00
2023-01-11T07:23:34.105Z,37.20
2023-01-11T07:26:02.813Z,35.60
2023-01-11T07:28:31.140Z,40.60
2023-01-11T07:31:00.093Z,37.10
2023-01-11T07:33:28.561Z,41.30
2023-01-11T07:35:58.415Z,72.50
2023-01-11T07:38:29.434Z,70.90
2023-01-11T07:40:57.498Z,56.60
2023-01-11T07:43:25.699Z,54.00
2023-01-11T07:45:56.696Z,62.50
2023-01-11T07:48:26.719Z,71.80
2023-01-11T07:50:55.714Z,66.10
2023-01-11T07:53:26.438Z,67.00
2023-01-11T07:55:55.843Z,44.80
2023-01-11T08:00:52.542Z,46.50
2023-01-11T08:03:21.116Z,45.90
2023-01-11T08:05:51.627Z,36.80
2023-01-11T08:08:20.565Z,69.50
2023-01-11T08:11:09.010Z,54.50
2023-01-11T08:13:55.908Z,82.80
2023-01-11T08:16:24.024Z,33.00
2023-01-11T08:18:53.373Z,74.50
2023-01-11T08:23:49.517Z,42.80
2023-01-11T08:26:18.268Z,42.20
2023-01-11T08:28:46.875Z,34.40
2023-01-11T08:31:15.232Z,28.80
2023-01-11T08:33:43.741Z,44.10
2023-01-11T08:36:13.301Z,30.60
2023-01-11T08:38:41.732Z,35.40
2023-01-11T08:41:14.960Z,30.00
2023-01-11T08:43:43.323Z,30.30
2023-01-11T08:46:11.942Z,52.20
2023-01-11T08:48:40.105Z,45.90
2023-01-11T08:51:08.222Z,30.00
2023-01-11T08:53:37.036Z,34.90
2023-01-11T08:56:05.691Z,32.00
2023-01-11T08:58:33.724Z,34.60
2023-01-11T09:01:04.031Z,32.50
2023-01-11T09:03:32.060Z,31.80
2023-01-11T09:06:00.116Z,32.90
2023-01-11T09:08:29.812Z,32.00
2023-01-11T09:11:00.023Z,32.90
2023-01-11T09:13:28.295Z,32.00
2023-01-11T09:15:58.011Z,32.10
2023-01-11T09:18:27.127Z,31.60
2023-01-11T09:23:24.393Z,29.40
2023-01-11T09:25:52.431Z,29.70
2023-01-11T09:28:20.566Z,28.50
2023-01-11T09:30:48.621Z,30.70
2023-01-11T09:33:16.785Z,28.80
2023-01-11T09:35:46.718Z,32.00
2023-01-11T09:38:15.263Z,32.10
2023-01-11T09:41:23.311Z,35.20
2023-01-11T09:44:14.600Z,30.20
2023-01-11T09:46:48.352Z,28.70
2023-01-11T09:49:24.893Z,29.70
2023-01-11T09:52:09.839Z,29.00
2023-01-11T09:54:37.984Z,35.30
2023-01-11T09:57:22.677Z,35.00
2023-01-11T10:00:05.111Z,31.90
2023-01-11T10:03:04.203Z,53.20
2023-01-11T10:06:01.335Z,50.40
2023-01-11T10:18:30.860Z,28.20
2023-01-11T10:18:37.595Z,31.80
2023-01-11T10:21:13.424Z,33.80
2023-01-11T10:24:01.378Z,32.00
2023-01-11T10:26:40.114Z,34.90
2023-01-11T10:29:38.982Z,31.00
2023-01-11T10:32:43.555Z,34.40
2023-01-11T10:36:06.103Z,33.20
2023-01-11T10:39:08.127Z,34.30
2023-01-11T10:41:49.298Z,27.70
2023-01-11T10:44:32.825Z,23.10
2023-01-11T10:47:03.842Z,24.20
2023-01-11T10:49:41.175Z,21.50
2023-01-11T10:52:52.161Z,25.60
2023-01-11T10:55:35.322Z,21.60
2023-01-11T10:58:22.283Z,21.80
2023-01-11T11:01:08.741Z,23.50
2023-01-11T11:04:05.713Z,21.40
2023-01-11T11:06:50.953Z,24.40
2023-01-11T11:09:36.595Z,18.80
2023-01-11T11:12:16.301Z,18.10
2023-01-11T11:14:53.310Z,18.20
2023-01-11T11:17:37.019Z,26.60
2023-01-11T11:20:23.414Z,18.90
2023-01-11T11:22:56.923Z,20.20
2023-01-11T11:25:37.696Z,17.20
2023-01-11T11:28:27.666Z,20.80
2023-01-11T11:30:59.095Z,18.90
2023-01-11T11:33:35.012Z,20.40
2023-01-11T11:36:07.545Z,23.50
2023-01-11T11:38:41.991Z,21.80
2023-01-11T11:41:17.513Z,25.00
2023-01-11T11:43:47.948Z,21.80
2023-01-11T11:46:20.371Z,20.50
2023-01-11T11:49:12.249Z,19.60
2023-01-11T11:51:43.037Z,23.00
2023-01-11T11:54:19.024Z,29.90
2023-01-11T11:56:47.709Z,19.00
2023-01-11T11:59:19.623Z,18.10
2023-01-11T12:01:56.260Z,23.10
2023-01-11T12:04:33.173Z,16.70
2023-01-11T12:07:11.939Z,12.00
2023-01-11T12:10:04.949Z,12.60
2023-01-11T12:12:34.449Z,11.70
2023-01-11T12:15:14.835Z,9.20
2023-01-11T12:17:43.572Z,8.00
2023-01-11T12:20:23.922Z,11.00
2023-01-11T12:23:12.766Z,9.00
2023-01-11T12:26:02.235Z,9.10
2023-01-11T12:28:48.841Z,10.00
2023-01-11T12:31:23.686Z,8.20
2023-01-11T12:34:11.013Z,14.60
2023-01-11T12:37:07.311Z,8.50
2023-01-11T12:40:04.994Z,8.90
2023-01-11T12:43:19.571Z,9.00
2023-01-11T12:46:15.014Z,15.00
2023-01-11T12:49:16.005Z,11.60
2023-01-11T12:51:47.208Z,9.30
2023-01-11T12:54:39.596Z,10.00
2023-01-11T12:57:13.509Z,5.40
2023-01-11T13:00:08.943Z,6.20
2023-01-11T13:02:57.372Z,3.20
2023-01-11T13:05:33.829Z,2.80
2023-01-11T13:08:04.411Z,3.00
2023-01-11T13:10:55.762Z,4.00
2023-01-11T13:13:34.026Z,1.60
2023-01-11T13:16:07.300Z,2.00
2023-01-11T13:18:59.275Z,2.50
2023-01-11T13:21:43.407Z,6.00
2023-01-11T13:24:20.122Z,1.60
2023-01-11T13:26:50.779Z,2.40
2023-01-11T13:29:33.781Z,2.10
2023-01-11T13:32:11.715Z,2.90
2023-01-11T13:34:48.564Z,2.60
2023-01-11T13:37:28.208Z,4.30
2023-01-11T13:40:03.796Z,2.50
2023-01-11T13:42:38.126Z,2.60
2023-01-11T13:45:35.314Z,2.50
2023-01-11T13:48:12.811Z,3.00
2023-01-11T13:50:54.497Z,2.50
2023-01-11T13:53:28.553Z,2.20
2023-01-11T13:56:06.489Z,4.20
2023-01-11T13:59:02.947Z,4.10
2023-01-11T14:01:57.155Z,6.10
2023-01-11T14:04:40.421Z,4.70
2023-01-11T14:07:28.187Z,5.20
2023-01-11T14:10:26.476Z,2.90
2023-01-11T14:13:06.529Z,3.10
2023-01-11T14:15:41.553Z,3.20
2023-01-11T14:18:28.461Z,3.60
2023-01-11T14:20:59.357Z,4.10
2023-01-11T14:23:46.431Z,2.70
2023-01-11T14:26:23.366Z,3.20
2023-01-11T14:28:59.349Z,4.40
2023-01-11T14:31:39.806Z,6.70
2023-01-11T14:34:26.369Z,3.20
2023-01-11T14:37:13.077Z,3.00
2023-01-11T14:39:50.445Z,2.30
2023-01-11T14:42:54.227Z,2.50
2023-01-11T14:45:45.107Z,2.50
2023-01-11T14:48:57.532Z,4.60
2023-01-11T14:51:37.075Z,7.70
2023-01-11T14:54:12.829Z,2.50
2023-01-11T14:56:43.913Z,2.40
2023-01-11T14:59:25.977Z,4.90
2023-01-11T15:02:03.578Z,6.20
2023-01-11T15:04:59.051Z,15.10
2023-01-11T15:07:29.905Z,23.40
2023-01-11T15:10:00.239Z,17.30
2023-01-11T15:12:41.230Z,35.10
2023-01-11T15:15:20.023Z,13.60
2023-01-11T15:18:15.949Z,16.80
2023-01-11T15:21:17.167Z,15.90
2023-01-11T15:23:57.992Z,6.80
2023-01-11T15:26:27.533Z,10.40
2023-01-11T15:31:49.756Z,7.00
2023-01-11T15:34:27.031Z,12.20
2023-01-11T15:37:05.040Z,11.60
2023-01-11T15:39:33.177Z,9.60
2023-01-11T15:42:16.313Z,10.90
2023-01-11T15:45:03.219Z,9.20
2023-01-11T15:47:53.367Z,13.20
2023-01-11T15:50:40.431Z,19.30
2023-01-11T15:53:30.311Z,17.10
2023-01-11T15:56:28.701Z,12.90
2023-01-11T15:59:31.059Z,15.40
2023-01-11T16:02:08.172Z,12.20
2023-01-11T16:04:44.193Z,12.10
2023-01-11T16:07:40.833Z,16.00
2023-01-11T16:11:17.208Z,16.30
2023-01-11T16:14:06.396Z,12.30
2023-01-11T16:16:41.478Z,16.10
2023-01-11T16:19:24.895Z,18.10
2023-01-11T16:21:56.918Z,15.20
2023-01-11T16:24:29.451Z,17.90
2023-01-11T16:27:01.931Z,20.10
2023-01-11T16:29:37.595Z,14.10
2023-01-11T16:32:18.494Z,14.00
2023-01-11T16:34:50.305Z,16.30
2023-01-11T16:37:30.065Z,17.00
2023-01-11T16:40:05.538Z,14.10
2023-01-11T16:42:39.834Z,16.90
2023-01-11T16:45:15.386Z,13.40
2023-01-11T16:48:01.435Z,21.70
2023-01-11T16:50:29.860Z,15.80
2023-01-11T16:53:04.206Z,12.30
2023-01-11T16:55:52.613Z,18.20
2023-01-11T16:58:29.607Z,18.30
2023-01-11T17:00:57.809Z,14.80
2023-01-11T17:03:29.853Z,17.10
2023-01-11T17:06:22.114Z,16.70
2023-01-11T17:08:56.563Z,11.20
2023-01-11T17:11:45.500Z,13.40
2023-01-11T17:14:31.859Z,15.80
2023-01-11T17:17:03.744Z,10.30
2023-01-11T17:19:35.606Z,13.40
2023-01-11T17:22:15.676Z,13.50
2023-01-11T17:24:59.352Z,9.00
2023-01-11T17:27:35.861Z,9.00
2023-01-11T17:30:05.668Z,7.80
2023-01-11T17:32:41.184Z,7.30
2023-01-11T17:35:22.275Z,8.00
2023-01-11T17:37:57.904Z,7.70
2023-01-11T17:40:32.950Z,7.30
2023-01-11T17:43:41.250Z,11.00
2023-01-11T17:46:16.926Z,6.50
2023-01-11T17:48:57.083Z,11.70
2023-01-11T17:51:34.367Z,7.40
2023-01-11T17:54:02.513Z,10.30
2023-01-11T17:56:38.401Z,8.70
2023-01-11T17:59:18.784Z,7.10
2023-01-11T18:01:59.714Z,12.30
2023-01-11T18:04:29.126Z,12.70
2023-01-11T18:07:19.126Z,14.20
2023-01-11T18:09:50.237Z,6.30
2023-01-11T18:12:22.661Z,14.80
2023-01-11T18:14:53.048Z,21.70
2023-01-11T18:17:32.966Z,22.70
2023-01-11T18:20:05.460Z,15.60
2023-01-11T18:22:37.411Z,8.90
2023-01-11T18:25:17.488Z,8.30
2023-01-11T18:27:47.110Z,10.10
2023-01-11T18:33:02.263Z,14.00
2023-01-11T18:35:31.037Z,67.00
2023-01-11T18:37:59.047Z,55.40
2023-01-11T18:40:27.382Z,42.70
2023-01-11T18:42:55.972Z,33.30
2023-01-11T18:45:25.160Z,12.30
2023-01-11T18:47:53.466Z,10.30
2023-01-11T18:50:21.814Z,13.10
2023-01-11T18:52:50.051Z,7.80
2023-01-11T18:55:18.117Z,12.00
2023-01-11T18:57:47.527Z,10.90
2023-01-11T19:00:16.902Z,17.90
2023-01-11T19:05:18.594Z,19.60
2023-01-11T19:07:47.275Z,22.70
2023-01-11T19:10:18.489Z,27.20
2023-01-11T19:12:47.435Z,25.30
2023-01-11T19:15:16.310Z,20.10
2023-01-11T19:17:44.618Z,19.50
2023-01-11T19:20:14.171Z,24.80
2023-01-11T19:22:42.598Z,11.00
2023-01-11T19:25:11.143Z,15.60
2023-01-11T19:27:39.612Z,22.30
2023-01-11T19:30:08.922Z,15.50
2023-01-11T19:32:37.132Z,23.00
2023-01-11T19:35:06.896Z,16.60
2023-01-11T19:37:37.685Z,28.40
2023-01-11T19:40:06.739Z,29.40
2023-01-11T19:42:34.840Z,31.20
2023-01-11T19:45:04.051Z,29.70
2023-01-11T19:47:32.419Z,30.90
2023-01-11T19:50:01.235Z,20.70
2023-01-11T19:52:29.684Z,14.30
2023-01-11T19:54:57.998Z,17.00
2023-01-11T19:57:27.573Z,18.30
2023-01-11T19:59:55.560Z,20.70
2023-01-11T20:02:24.683Z,17.10
2023-01-11T20:04:53.210Z,17.00
2023-01-11T20:07:21.330Z,26.40
2023-01-11T20:09:49.475Z,28.00
2023-01-11T20:12:17.651Z,32.30
2023-01-11T20:14:46.430Z,30.70
2023-01-11T20:17:19.294Z,29.30
2023-01-11T20:19:54.855Z,36.70
2023-01-11T20:22:26.209Z,42.10
2023-01-11T20:24:56.121Z,46.40
2023-01-11T20:27:24.103Z,45.50
2023-01-11T20:29:52.239Z,50.40
2023-01-11T20:32:39.910Z,46.00
2023-01-11T20:35:10.114Z,54.40
2023-01-11T20:37:38.365Z,59.40
2023-01-11T20:40:07.222Z,56.60
2023-01-11T20:42:38.213Z,62.40
2023-01-11T20:45:06.821Z,39.50
2023-01-11T20:47:34.929Z,43.20
2023-01-11T20:50:03.010Z,27.10
2023-01-11T20:52:31.267Z,28.60
2023-01-11T20:54:59.367Z,25.50
2023-01-11T20:57:29.509Z,28.50
2023-01-11T20:59:57.961Z,33.40
2023-01-11T21:02:26.133Z,23.80
2023-01-11T21:04:54.815Z,26.10
2023-01-11T21:07:23.066Z,22.80
2023-01-11T21:09:51.275Z,23.70
2023-01-11T21:12:20.484Z,18.80
2023-01-11T21:14:48.852Z,21.10
2023-01-11T21:17:17.852Z,19.80
2023-01-11T21:19:45.852Z,24.60
2023-01-11T21:22:13.974Z,27.80
2023-01-11T21:24:42.146Z,24.90
2023-01-11T21:27:10.451Z,29.20
2023-01-11T21:29:38.717Z,40.50
2023-01-11T21:32:06.868Z,45.90
2023-01-11T21:34:34.938Z,36.70
2023-01-11T21:37:02.980Z,43.50
2023-01-11T21:39:31.075Z,33.80
2023-01-11T21:41:59.901Z,31.80
2023-01-11T21:44:33.790Z,37.50
2023-01-11T21:47:04.533Z,39.20
2023-01-11T21:49:33.539Z,33.60
2023-01-11T21:52:01.654Z,37.40
2023-01-11T21:54:29.745Z,23.90
2023-01-11T21:56:58.031Z,27.40
2023-01-11T21:59:26.264Z,31.40
2023-01-11T22:01:54.681Z,28.80
2023-01-11T22:04:23.046Z,28.70
2023-01-11T22:06:54.101Z,26.60
2023-01-11T22:09:25.187Z,26.80
2023-01-11T22:11:53.712Z,23.40
2023-01-11T22:14:21.773Z,31.80
2023-01-11T22:16:50.577Z,43.60
2023-01-11T22:19:19.058Z,59.50
2023-01-11T22:21:47.540Z,70.30
2023-01-11T22:24:16.114Z,53.70
2023-01-11T22:26:44.188Z,48.10
2023-01-11T22:29:12.634Z,24.30
2023-01-11T22:31:43.855Z,21.10
2023-01-11T22:34:14.045Z,29.00
2023-01-11T22:36:43.179Z,32.80
2023-01-11T22:39:12.976Z,35.80
2023-01-11T22:41:41.177Z,37.60
2023-01-11T22:44:10.162Z,43.30
2023-01-11T22:46:38.823Z,41.30
2023-01-11T22:49:08.079Z,39.90
2023-01-11T22:51:36.283Z,54.00
2023-01-11T22:54:04.819Z,42.10
2023-01-11T22:56:33.925Z,42.80
2023-01-11T22:59:02.675Z,42.80
2023-01-11T23:01:34.268Z,27.20
2023-01-11T23:04:03.153Z,27.60
2023-01-11T23:06:37.376Z,29.50
2023-01-11T23:09:08.658Z,30.20
2023-01-11T23:11:57.283Z,25.10
2023-01-11T23:14:30.555Z,27.70
2023-01-11T23:17:04.572Z,24.10
2023-01-11T23:19:33.850Z,26.20
2023-01-11T23:24:31.244Z,29.60
2023-01-11T23:26:59.668Z,35.00
2023-01-11T23:29:27.925Z,33.60
2023-01-11T23:31:56.134Z,30.80
2023-01-11T23:34:24.438Z,33.60
2023-01-11T23:36:52.607Z,39.40
2023-01-11T23:39:20.895Z,36.30
2023-01-11T23:42:07.612Z,39.20
2023-01-11T23:44:35.769Z,33.60
2023-01-11T23:47:22.192Z,46.70
2023-01-11T23:49:55.453Z,43.40
2023-01-11T23:52:26.054Z,48.50
2023-01-11T23:54:55.081Z,40.20
2023-01-11T23:57:25.011Z,33.50
2023-01-11T23:59:53.276Z,37.90
